Equality — ODTX — position and weather

sailwx.info

Track history (hours):
 
Tides and Currents Weather Stations Pressure Air Temp Water Temp Dewpoint Dewpoint Depression Visibility Wind Speed Wind Dir Waves Ship Positions

Equality

Last reported at 2016-Aug-26 09:27 UTC. Time now 2016-Aug-30 13:16 UTC.
Position N 36°23' E 014°41'.

Length 124 m; draft 4.7 m.

Type: Cargo ship. MMSI: 450501000.

Date/timePositionNaut miles runAvg speedWind from/ knotsBaromVisibWave heightAir tempDewpointWater temp
2016-Aug-26 09:27N 36°23' E 014°41'9 9.9
2016-Aug-26 08:33N 36°25' E 014°31'1010.2
2016-Aug-26 07:33N 36°29' E 014°19'1010.5
2016-Aug-26 06:33N 36°32' E 014°06'2210.8
2016-Aug-26 04:33N 36°38' E 013°41'1111.1
2016-Aug-26 03:33N 36°42' E 013°28'1111.1
2016-Aug-26 02:33N 36°46' E 013°15'1110.8
2016-Aug-26 01:33N 36°50' E 013°02'1010.4
2016-Aug-26 00:33N 36°53' E 012°49'1010.3
2016-Aug-25 23:33N 36°56' E 012°37'1010.3
2016-Aug-25 22:33N 36°59' E 012°25'3610.5
2016-Aug-25 19:07N 37°12' E 011°42'35810.3
2016-Aug-24 08:14N 37°31' E 004°12'7810.0
2016-Aug-24 00:25N 37°28' E 002°34'8 9.8
2016-Aug-23 23:34N 37°28' E 002°24'2110.2
2016-Aug-23 21:32N 37°28' E 001°58'1510.8
2016-Aug-23 20:08N 37°27' E 001°39'610.9
2016-Aug-23 19:33N 37°27' E 001°31'1110.8
2016-Aug-23 18:32N 37°27' E 001°17'1110.5
2016-Aug-23 17:26N 37°27' E 001°02'79 9.9
2016-Aug-23 09:30N 37°29' W 000°37'1010.2
2016-Aug-23 08:33N 37°29' W 000°49'9 8.4
2016-Aug-23 07:31N 37°31' W 000°60'5 0.2
2016-Aug-22 10:05N 37°31' W 000°54'611.3
2016-Aug-22 09:33N 37°32' W 000°46'1010.5
2016-Aug-22 08:33N 37°34' W 000°34'1010.2
2016-Aug-22 07:33N 37°43' W 000°26'15110.5
2016-Aug-21 17:07N 39°45' E 001°28'710.6
2016-Aug-21 16:30N 39°50' E 001°33'1010.8
2016-Aug-21 15:33N 39°58' E 001°41'1110.6
2016-Aug-21 14:33N 40°06' E 001°50'1110.6
2016-Aug-21 13:33N 40°14' E 001°59'1110.7
2016-Aug-21 12:33N 40°23' E 002°08'1111.0
2016-Aug-21 11:33N 40°31' E 002°17'1111.0
2016-Aug-21 10:33N 40°40' E 002°26'1111.0
2016-Aug-21 09:33N 40°48' E 002°35'1111.2
2016-Aug-21 08:33N 40°56' E 002°45'1111.4
2016-Aug-21 07:33N 41°05' E 002°55'1211.5
2016-Aug-21 06:33N 41°13' E 003°05'1211.7
2016-Aug-21 05:33N 41°22' E 003°15'2311.3
2016-Aug-21 03:33N 41°40' E 003°35'97 2.3
2016-Aug-19 10:17N 43°15' E 003°53'34810.8
2016-Aug-18 02:07N 38°41' E 008°37'611.3
2016-Aug-18 01:32N 38°38' E 008°45'2511.2
2016-Aug-17 23:19N 38°29' E 009°14'810.8
2016-Aug-17 22:33N 38°25' E 009°24'4410.6
2016-Aug-17 18:25N 38°08' E 010°15'910.6
2016-Aug-17 17:33N 38°05' E 010°26'9311.0
2016-Aug-17 09:05N 37°28' E 012°14'610.6
2016-Aug-17 08:33N 37°26' E 012°20'1211.0
2016-Aug-17 07:25N 37°21' E 012°35'3110.7
2016-Aug-17 04:30N 37°09' E 013°11'1210.5
2016-Aug-17 03:24N 37°04' E 013°24'910.2
2016-Aug-17 02:33N 37°01' E 013°34'1010.5
2016-Aug-17 01:33N 36°57' E 013°46'1111.0
2016-Aug-17 00:33N 36°52' E 013°59'1111.4
2016-Aug-16 23:33N 36°48' E 014°12'1211.8
2016-Aug-16 22:33N 36°43' E 014°26'1211.7
2016-Aug-16 21:33N 36°39' E 014°39'1111.4
2016-Aug-16 20:33N 36°34' E 014°52'1111.4
2016-Aug-16 19:33N 36°29' E 015°05'  
Track history (hours):
 
Tides and Currents Weather Stations Pressure Air Temp Water Temp Dewpoint Dewpoint Depression Visibility Wind Speed Wind Dir Waves Ship Positions

Equality

Last reported at 2016-Aug-26 09:27 UTC. Time now 2016-Aug-30 13:16 UTC.
Position N 36°23' E 014°41'.

Length 124 m; draft 4.7 m.

Type: Cargo ship. MMSI: 450501000.

Date/timePositionNaut miles runAvg speedWind from/ knotsBaromVisibWave heightAir tempDewpointWater temp
2016-Aug-26 09:27N 36°23' E 014°41'9 9.9
2016-Aug-26 08:33N 36°25' E 014°31'1010.2
2016-Aug-26 07:33N 36°29' E 014°19'1010.5
2016-Aug-26 06:33N 36°32' E 014°06'2210.8
2016-Aug-26 04:33N 36°38' E 013°41'1111.1
2016-Aug-26 03:33N 36°42' E 013°28'1111.1
2016-Aug-26 02:33N 36°46' E 013°15'1110.8
2016-Aug-26 01:33N 36°50' E 013°02'1010.4
2016-Aug-26 00:33N 36°53' E 012°49'1010.3
2016-Aug-25 23:33N 36°56' E 012°37'1010.3
2016-Aug-25 22:33N 36°59' E 012°25'3610.5
2016-Aug-25 19:07N 37°12' E 011°42'35810.3
2016-Aug-24 08:14N 37°31' E 004°12'7810.0
2016-Aug-24 00:25N 37°28' E 002°34'8 9.8
2016-Aug-23 23:34N 37°28' E 002°24'2110.2
2016-Aug-23 21:32N 37°28' E 001°58'1510.8
2016-Aug-23 20:08N 37°27' E 001°39'610.9
2016-Aug-23 19:33N 37°27' E 001°31'1110.8
2016-Aug-23 18:32N 37°27' E 001°17'1110.5
2016-Aug-23 17:26N 37°27' E 001°02'79 9.9
2016-Aug-23 09:30N 37°29' W 000°37'1010.2
2016-Aug-23 08:33N 37°29' W 000°49'9 8.4
2016-Aug-23 07:31N 37°31' W 000°60'5 0.2
2016-Aug-22 10:05N 37°31' W 000°54'611.3
2016-Aug-22 09:33N 37°32' W 000°46'1010.5
2016-Aug-22 08:33N 37°34' W 000°34'1010.2
2016-Aug-22 07:33N 37°43' W 000°26'15110.5
2016-Aug-21 17:07N 39°45' E 001°28'710.6
2016-Aug-21 16:30N 39°50' E 001°33'1010.8
2016-Aug-21 15:33N 39°58' E 001°41'1110.6
2016-Aug-21 14:33N 40°06' E 001°50'1110.6
2016-Aug-21 13:33N 40°14' E 001°59'1110.7
2016-Aug-21 12:33N 40°23' E 002°08'1111.0
2016-Aug-21 11:33N 40°31' E 002°17'1111.0
2016-Aug-21 10:33N 40°40' E 002°26'1111.0
2016-Aug-21 09:33N 40°48' E 002°35'1111.2
2016-Aug-21 08:33N 40°56' E 002°45'1111.4
2016-Aug-21 07:33N 41°05' E 002°55'1211.5
2016-Aug-21 06:33N 41°13' E 003°05'1211.7
2016-Aug-21 05:33N 41°22' E 003°15'2311.3
2016-Aug-21 03:33N 41°40' E 003°35'97 2.3
2016-Aug-19 10:17N 43°15' E 003°53'34810.8
2016-Aug-18 02:07N 38°41' E 008°37'611.3
2016-Aug-18 01:32N 38°38' E 008°45'2511.2
2016-Aug-17 23:19N 38°29' E 009°14'810.8
2016-Aug-17 22:33N 38°25' E 009°24'4410.6
2016-Aug-17 18:25N 38°08' E 010°15'910.6
2016-Aug-17 17:33N 38°05' E 010°26'9311.0
2016-Aug-17 09:05N 37°28' E 012°14'610.6
2016-Aug-17 08:33N 37°26' E 012°20'1211.0
2016-Aug-17 07:25N 37°21' E 012°35'3110.7
2016-Aug-17 04:30N 37°09' E 013°11'1210.5
2016-Aug-17 03:24N 37°04' E 013°24'910.2
2016-Aug-17 02:33N 37°01' E 013°34'1010.5
2016-Aug-17 01:33N 36°57' E 013°46'1111.0
2016-Aug-17 00:33N 36°52' E 013°59'1111.4
2016-Aug-16 23:33N 36°48' E 014°12'1211.8
2016-Aug-16 22:33N 36°43' E 014°26'1211.7
2016-Aug-16 21:33N 36°39' E 014°39'1111.4
2016-Aug-16 20:33N 36°34' E 014°52'1111.4
2016-Aug-16 19:33N 36°29' E 015°05'  

Dump ship's entire track history